Detall de PIREP

Printer-friendly versionPDF version

[2017/03/05 09:06:00]
Flight IATA:CT1004
Pilot Number:012
Company ICAO:CAT
Aircraft Type:BE20/A
PAX:6
Departing Airport: LEBL
Destination Airport: EBLG
Alternate Airport:EHAM
Online: VATSIM
Route:DALIN UN870 SOSUR UM976 SOFFY UQ208 GIGUS UQ216 IBERA UN853 DIK UN852 GESLO
Flight Level:F320
No Slew and time accel
No pause
Crash detect
Detect pilot in Cockpit between each 30 and 45 minutes
09:06 Zero fuel Weight: 9633 Lbs, Fuel Weight: 2162 Lbs
09:06 VATSIM:LEBL 050830Z 31005KT CAVOK 09/02 Q1015 NOSIG
09:06 VATSIM:EBLG 050850Z 20016KT 9999 FEW018 06/02 Q1000 NOSIG
09:06 MWC 2017 BARCELONA CHARTER
09:06 Parking Brakes off
09:12 Take-off
09:12 Take off Weight: 11777 Lbs
09:12 Wind: 309º @ 005 Knots Heading: 248º
09:12 POS N41º 17´ 15´´ E002º 05´ 21´´
09:12 Flaps:1 at 123 Knots
09:12 Gear Up: 125 Knots
09:13 Flaps:0 at 125 Knots
09:27 Wind:315º@063 Knots Heading: 038º Ground Speed: 190 Knots Altitude 18845 ft
09:37 TOC
09:37 Fuel Weight: 1849 Lb
09:42 Wind:325º@101 Knots Heading: 041º Ground Speed: 239 Knots Altitude 32004 ft
09:57 Wind:320º@103 Knots Heading: 017º Ground Speed: 216 Knots Altitude 31965 ft
10:12 Wind:321º@107 Knots Heading: 357º Ground Speed: 173 Knots Altitude 31991 ft
10:27 Wind:322º@122 Knots Heading: 356º Ground Speed: 167 Knots Altitude 31981 ft
10:42 Wind:319º@126 Knots Heading: 355º Ground Speed: 167 Knots Altitude 31955 ft
10:57 Wind:315º@118 Knots Heading: 356º Ground Speed: 182 Knots Altitude 31883 ft
11:12 Wind:311º@113 Knots Heading: 337º Ground Speed: 160 Knots Altitude 31863 ft
11:27 Wind:310º@101 Knots Heading: 340º Ground Speed: 174 Knots Altitude 31817 ft
11:42 Wind:306º@093 Knots Heading: 341º Ground Speed: 181 Knots Altitude 31751 ft
11:57 Wind:295º@089 Knots Heading: 339º Ground Speed: 203 Knots Altitude 31725 ft
12:12 Wind:289º@060 Knots Heading: 347º Ground Speed: 229 Knots Altitude 31722 ft
12:21 TOD
12:21 Fuel Weight: 553 Lb
12:21 TOC
12:21 Fuel Weight: 553 Lb
12:21 TOD
12:21 Fuel Weight: 553 Lb
12:27 Wind:211º@033 Knots Heading: 335º Ground Speed: 307 Knots Altitude 23136 ft
12:42 Wind:189º@017 Knots Heading: 032º Ground Speed: 187 Knots Altitude 2480 ft
12:43 Flaps:1 at 139 Knots
12:43 Gear Down: 133 Knots
12:44 Flaps:2 at 130 Knots
12:49 TouchDown:Rate -226 ft/min Speed: 103 Knots
12:49 VATSIM:EBLG 051220Z 18019KT 9999 -RA FEW025 BKN040 08/01 Q0997 TEMPO 21020G32KT
12:49 Land
12:49 Wind:189º@017 Knots
12:49 Heading: 200º
12:49 Flight Duration: 03:37
12:49 Landing Weight: 10028 Lbs
12:49 POS N50º 38´ 23´´ E005º 26´ 57´´
12:50 Parking brakes on
12:50 Block to Block Duration: 03:44
12:50 Final Fuel: 390 Lbls
12:50 Spent Fuel: 1772 Lbls
12:50 Flight Length: 695 NM
12:50 TOD Land Length: 101 NM

Exportar CSV

Powered by Drupal - Modified by Danger4k